createdAt,value
2019-03-23T00:00:28.765Z,97095.51
2019-03-23T00:02:54.786Z,97089.52
2019-03-23T00:05:20.841Z,97093.26
2019-03-23T00:07:46.966Z,97087.47
2019-03-23T00:10:13.079Z,97085.47
2019-03-23T00:12:39.203Z,97079.83
2019-03-23T00:15:07.932Z,97080.09
2019-03-23T00:17:33.852Z,97086.62
2019-03-23T00:20:00.015Z,97082.41
2019-03-23T00:22:26.131Z,97081.71
2019-03-23T00:24:52.133Z,97080.48
2019-03-23T00:27:18.287Z,97084.02
2019-03-23T00:29:44.417Z,97073.00
2019-03-23T00:32:10.560Z,97067.80
2019-03-23T00:34:36.683Z,97072.52
2019-03-23T00:37:04.343Z,97072.44
2019-03-23T00:39:30.361Z,97070.89
2019-03-23T00:41:56.388Z,97068.69
2019-03-23T00:44:22.522Z,97061.26
2019-03-23T00:46:48.552Z,97061.35
2019-03-23T00:49:14.713Z,97056.38
2019-03-23T00:51:40.863Z,97057.16
2019-03-23T00:54:06.984Z,97052.14
2019-03-23T00:56:33.121Z,97050.38
2019-03-23T00:58:59.244Z,97049.69
2019-03-23T01:01:25.279Z,97043.42
2019-03-23T01:03:51.370Z,97044.28
2019-03-23T01:06:17.625Z,97051.05
2019-03-23T01:08:43.787Z,97048.17
2019-03-23T01:11:09.951Z,97045.63
2019-03-23T01:13:36.072Z,97046.40
2019-03-23T01:16:02.196Z,97041.88
2019-03-23T01:18:28.315Z,97035.55
2019-03-23T01:20:54.355Z,97039.09
2019-03-23T01:23:20.378Z,97030.67
2019-03-23T01:25:46.520Z,97025.21
2019-03-23T01:28:12.792Z,97032.06
2019-03-23T01:30:38.820Z,97027.72
2019-03-23T01:33:04.977Z,97026.16
2019-03-23T01:35:31.111Z,97021.31
2019-03-23T01:37:57.239Z,97026.02
2019-03-23T01:40:23.272Z,97019.89
2019-03-23T01:42:49.390Z,97023.49
2019-03-23T01:45:15.510Z,97021.96
2019-03-23T01:47:41.729Z,97012.75
2019-03-23T01:50:09.862Z,97019.77
2019-03-23T01:52:36.018Z,97020.39
2019-03-23T01:55:04.526Z,97016.38
2019-03-23T01:57:30.578Z,97017.65
2019-03-23T01:59:56.611Z,97016.22
2019-03-23T02:02:22.731Z,97015.11
2019-03-23T02:04:48.853Z,97014.75
2019-03-23T02:07:14.907Z,97010.41
2019-03-23T02:09:40.938Z,97013.59
2019-03-23T02:12:07.057Z,97016.50
2019-03-23T02:14:33.288Z,97015.19
2019-03-23T02:16:59.315Z,97022.82
2019-03-23T02:19:25.350Z,97020.34
2019-03-23T02:21:51.461Z,97019.46
2019-03-23T02:24:18.907Z,97025.08
2019-03-23T02:26:44.959Z,97017.28
2019-03-23T02:29:11.014Z,97021.77
2019-03-23T02:31:37.171Z,97019.06
2019-03-23T02:34:03.297Z,97023.97
2019-03-23T02:36:29.445Z,97022.39
2019-03-23T02:38:55.370Z,97019.77
2019-03-23T02:41:21.511Z,97023.27
2019-03-23T02:43:47.639Z,97031.41
2019-03-23T02:46:13.790Z,97042.16
2019-03-23T02:48:57.253Z,97035.19
2019-03-23T02:51:23.273Z,97029.03
2019-03-23T02:53:49.404Z,97027.91
2019-03-23T02:56:15.422Z,97027.70
2019-03-23T02:58:41.545Z,97022.25
2019-03-23T03:01:07.567Z,97021.16
2019-03-23T03:03:33.745Z,97016.77
2019-03-23T03:05:59.772Z,97012.70
2019-03-23T03:08:25.930Z,97012.48
2019-03-23T03:10:53.118Z,97007.19
2019-03-23T03:13:19.104Z,97002.47
2019-03-23T03:15:45.287Z,97001.44
2019-03-23T03:18:11.419Z,97006.81
2019-03-23T03:20:37.534Z,97000.27
2019-03-23T03:23:03.681Z,96999.70
2019-03-23T03:25:29.609Z,97004.10
2019-03-23T03:27:56.882Z,96995.69
2019-03-23T03:30:22.883Z,97005.12
2019-03-23T03:32:48.909Z,96998.16
2019-03-23T03:35:15.036Z,97002.34
2019-03-23T03:37:55.411Z,97004.73
2019-03-23T03:40:09.341Z,97005.84
2019-03-23T03:42:35.496Z,97002.53
2019-03-23T03:45:02.420Z,97002.53
2019-03-23T03:47:28.564Z,97006.92
2019-03-23T03:49:54.685Z,97010.94
2019-03-23T03:52:20.830Z,97003.23
2019-03-23T03:54:46.951Z,97004.30
2019-03-23T03:57:13.020Z,96995.76
2019-03-23T03:59:39.145Z,96994.11
2019-03-23T04:02:05.268Z,96998.27
2019-03-23T04:04:31.186Z,97005.28
2019-03-23T04:06:57.302Z,96999.81
2019-03-23T04:09:23.461Z,96999.48
2019-03-23T04:11:49.583Z,97013.86
2019-03-23T04:14:15.735Z,97005.55
2019-03-23T04:16:41.867Z,97003.27
2019-03-23T04:19:07.812Z,96998.00
2019-03-23T04:21:33.842Z,97004.40
2019-03-23T04:23:59.933Z,97002.69
2019-03-23T04:26:26.099Z,97003.72
2019-03-23T04:28:52.140Z,97002.78
2019-03-23T04:31:18.199Z,97003.20
2019-03-23T04:33:44.227Z,97003.91
2019-03-23T04:36:10.373Z,97001.34
2019-03-23T04:38:36.491Z,97005.03
2019-03-23T04:41:02.629Z,97005.36
2019-03-23T04:43:28.751Z,97000.69
2019-03-23T04:45:54.765Z,97001.25
2019-03-23T04:48:20.690Z,96998.64
2019-03-23T04:50:46.706Z,97001.67
2019-03-23T04:53:12.738Z,96990.94
2019-03-23T04:55:38.870Z,96992.94
2019-03-23T04:58:04.898Z,96992.66
2019-03-23T05:00:30.919Z,96988.83
2019-03-23T05:02:56.947Z,96989.99
2019-03-23T05:05:22.987Z,96985.45
2019-03-23T05:07:49.010Z,96987.33
2019-03-23T05:10:15.162Z,96984.42
2019-03-23T05:12:41.432Z,96983.81
2019-03-23T05:15:08.058Z,96988.77
2019-03-23T05:17:34.821Z,96991.72
2019-03-23T05:20:00.950Z,96990.16
2019-03-23T05:22:27.100Z,96995.45
2019-03-23T05:24:53.231Z,96998.63
2019-03-23T05:27:19.372Z,96992.41
2019-03-23T05:29:45.420Z,96996.56
2019-03-23T05:32:14.176Z,96990.34
2019-03-23T05:34:40.231Z,96996.98
2019-03-23T05:37:06.358Z,96997.39
2019-03-23T05:39:32.449Z,96993.88
2019-03-23T05:41:58.574Z,96991.80
2019-03-23T05:44:26.920Z,96997.27
2019-03-23T05:46:54.988Z,96991.52
2019-03-23T05:49:21.103Z,96983.52
2019-03-23T05:51:47.264Z,96985.88
2019-03-23T05:54:13.345Z,96982.36
2019-03-23T05:56:39.366Z,96983.39
2019-03-23T05:59:05.502Z,96987.39
2019-03-23T06:01:31.597Z,96976.34
2019-03-23T06:03:57.616Z,96979.98
2019-03-23T06:06:23.541Z,96982.67
2019-03-23T06:08:55.043Z,96979.94
2019-03-23T06:11:17.398Z,96977.57
2019-03-23T06:13:43.446Z,96971.38
2019-03-23T06:16:09.476Z,96977.53
2019-03-23T06:18:35.413Z,96973.05
2019-03-23T06:21:02.941Z,96978.00
2019-03-23T06:23:28.915Z,96975.64
2019-03-23T06:25:55.041Z,96976.27
2019-03-23T06:28:21.170Z,96972.38
2019-03-23T06:30:47.298Z,96976.86
2019-03-23T06:33:13.439Z,96984.46
2019-03-23T06:35:39.366Z,96978.53
2019-03-23T06:38:05.418Z,96979.69
2019-03-23T06:40:31.450Z,96982.64
2019-03-23T06:42:59.990Z,96979.08
2019-03-23T06:45:25.540Z,96973.39
2019-03-23T06:47:51.598Z,96971.90
2019-03-23T06:50:17.737Z,96975.35
2019-03-23T06:52:43.864Z,96982.95
2019-03-23T06:55:10.304Z,96973.01
2019-03-23T06:57:36.448Z,96968.45
2019-03-23T07:00:27.301Z,96974.39
2019-03-23T07:02:53.419Z,96964.37
2019-03-23T07:05:19.557Z,96980.13
2019-03-23T07:07:45.600Z,96969.87
2019-03-23T07:10:12.633Z,96976.88
2019-03-23T07:12:38.664Z,96968.29
2019-03-23T07:15:07.276Z,96966.23
2019-03-23T07:17:33.329Z,96967.13
2019-03-23T07:19:59.448Z,96970.78
2019-03-23T07:22:25.562Z,96975.77
2019-03-23T07:24:51.562Z,96974.78
2019-03-23T07:27:17.483Z,96972.38
2019-03-23T07:29:43.602Z,96974.97
2019-03-23T07:32:09.740Z,96970.95
2019-03-23T07:34:35.917Z,96972.33
2019-03-23T07:37:02.088Z,96966.59
2019-03-23T07:39:30.564Z,96964.83
2019-03-23T07:41:58.568Z,96958.83
2019-03-23T07:44:27.926Z,96954.12
2019-03-23T07:46:53.986Z,96953.70
2019-03-23T07:49:20.503Z,96957.84
2019-03-23T07:51:46.930Z,96955.58
2019-03-23T07:54:22.456Z,96953.36
2019-03-23T07:56:48.903Z,96950.94
2019-03-23T07:59:15.296Z,96951.62
2019-03-23T08:01:41.769Z,96943.89
2019-03-23T08:04:08.209Z,96936.69
2019-03-23T08:06:34.565Z,96938.69
2019-03-23T08:09:04.769Z,96934.14
2019-03-23T08:11:30.921Z,96934.82
2019-03-23T08:13:56.952Z,96935.49
2019-03-23T08:16:23.069Z,96932.42
2019-03-23T08:18:49.204Z,96927.20
2019-03-23T08:21:15.233Z,96924.63
2019-03-23T08:23:41.465Z,96925.55
2019-03-23T08:26:07.583Z,96919.64
2019-03-23T08:28:33.726Z,96927.10
2019-03-23T08:31:01.884Z,96915.81
2019-03-23T08:33:27.925Z,96916.47
2019-03-23T08:35:54.095Z,96907.61
2019-03-23T08:38:20.336Z,96903.19
2019-03-23T08:40:46.519Z,96908.47
2019-03-23T08:43:13.975Z,96908.33
2019-03-23T08:45:40.238Z,96906.18
2019-03-23T08:48:06.268Z,96893.48
2019-03-23T08:50:32.422Z,96900.23
2019-03-23T08:52:58.550Z,96892.81
2019-03-23T08:55:24.812Z,96900.53
2019-03-23T08:57:51.047Z,96893.41
2019-03-23T09:00:17.208Z,96889.59
2019-03-23T09:02:43.356Z,96885.70
2019-03-23T09:05:09.618Z,96879.84
2019-03-23T09:07:35.747Z,96874.98
2019-03-23T09:10:04.879Z,96875.73
2019-03-23T09:12:31.152Z,96866.52
2019-03-23T09:14:57.332Z,96870.19
2019-03-23T09:17:23.333Z,96871.36
2019-03-23T09:19:49.457Z,96873.59
2019-03-23T09:22:15.491Z,96863.86
2019-03-23T09:24:41.732Z,96865.88
2019-03-23T09:27:07.887Z,96856.55
2019-03-23T09:29:34.152Z,96852.18
2019-03-23T09:32:00.325Z,96844.73
2019-03-23T09:34:26.370Z,96840.34
2019-03-23T09:36:52.522Z,96838.19
2019-03-23T09:39:18.534Z,96843.69
2019-03-23T09:41:44.676Z,96840.58
2019-03-23T09:44:10.821Z,96833.53
2019-03-23T09:46:37.851Z,96827.20
2019-03-23T09:49:03.975Z,96832.31
2019-03-23T09:51:30.098Z,96826.61
2019-03-23T09:53:56.302Z,96823.45
2019-03-23T09:56:22.543Z,96813.54
2019-03-23T09:58:48.667Z,96818.46
2019-03-23T10:01:14.864Z,96812.96
2019-03-23T10:03:42.872Z,96808.73
2019-03-23T10:06:09.043Z,96806.92
2019-03-23T10:08:35.670Z,96803.95
2019-03-23T10:11:01.835Z,96796.92
2019-03-23T10:13:27.965Z,96796.33
2019-03-23T10:15:54.141Z,96794.01
2019-03-23T10:18:20.286Z,96790.50
2019-03-23T10:20:46.435Z,96773.87
2019-03-23T10:23:12.742Z,96778.80
2019-03-23T10:25:38.901Z,96780.45
2019-03-23T10:28:05.095Z,96778.45
2019-03-23T10:30:31.312Z,96770.22
2019-03-23T10:32:57.467Z,96762.05
2019-03-23T10:35:23.632Z,96760.23
2019-03-23T10:37:49.844Z,96757.22
2019-03-23T10:40:15.991Z,96755.27
2019-03-23T10:42:44.000Z,96753.94
2019-03-23T10:45:10.351Z,96743.73
2019-03-23T10:47:36.645Z,96749.89
2019-03-23T10:50:04.452Z,96749.59
2019-03-23T10:52:30.559Z,96743.55
2019-03-23T10:54:56.708Z,96747.75
2019-03-23T10:57:22.822Z,96746.63
2019-03-23T10:59:48.951Z,96746.53
2019-03-23T11:02:15.060Z,96743.95
2019-03-23T11:04:40.981Z,96748.14
2019-03-23T11:07:07.129Z,96752.05
2019-03-23T11:09:33.243Z,96747.47
2019-03-23T11:11:59.386Z,96739.87
2019-03-23T11:14:25.414Z,96737.79
2019-03-23T11:16:51.544Z,96734.52
2019-03-23T11:19:17.496Z,96730.00
2019-03-23T11:21:45.483Z,96724.47
2019-03-23T11:24:11.571Z,96720.88
2019-03-23T11:26:38.145Z,96716.53
2019-03-23T11:29:04.340Z,96708.62
2019-03-23T11:31:31.115Z,96714.45
2019-03-23T11:33:57.278Z,96706.69
2019-03-23T11:36:23.417Z,96706.36
2019-03-23T11:38:49.539Z,96702.75
2019-03-23T11:41:15.764Z,96698.03
2019-03-23T11:43:41.904Z,96697.59
2019-03-23T11:46:07.927Z,96690.39
2019-03-23T11:48:34.047Z,96688.91
2019-03-23T11:51:00.205Z,96682.91
2019-03-23T11:53:26.319Z,96681.62
2019-03-23T11:55:52.472Z,96686.58
2019-03-23T11:58:18.485Z,96675.00
2019-03-23T12:00:44.613Z,96669.36
2019-03-23T12:03:10.728Z,96669.14
2019-03-23T12:05:36.790Z,96671.55
2019-03-23T12:08:03.074Z,96654.73
2019-03-23T12:10:29.211Z,96659.78
2019-03-23T12:12:55.333Z,96658.89
2019-03-23T12:15:21.466Z,96650.07
2019-03-23T12:17:48.641Z,96651.93
2019-03-23T12:20:18.557Z,96653.73
2019-03-23T12:22:44.664Z,96647.25
2019-03-23T12:25:10.992Z,96639.92
2019-03-23T12:27:37.134Z,96633.59
2019-03-23T12:30:09.633Z,96632.80
2019-03-23T12:32:35.695Z,96629.38
2019-03-23T12:35:04.556Z,96630.61
2019-03-23T12:37:30.581Z,96634.02
2019-03-23T12:39:56.614Z,96623.83
2019-03-23T12:42:22.862Z,96627.39
2019-03-23T12:44:48.991Z,96622.77
2019-03-23T12:47:15.126Z,96618.88
2019-03-23T12:49:41.260Z,96615.70
2019-03-23T12:52:07.419Z,96619.09
2019-03-23T12:54:35.007Z,96621.36
2019-03-23T12:57:01.166Z,96616.91
2019-03-23T12:59:27.291Z,96613.02
2019-03-23T13:01:53.459Z,96606.61
2019-03-23T13:04:19.616Z,96605.24
2019-03-23T13:06:45.786Z,96602.81
2019-03-23T13:09:12.022Z,96601.41
2019-03-23T13:11:38.181Z,96591.28
2019-03-23T13:14:04.212Z,96591.58
2019-03-23T13:16:31.913Z,96588.70
2019-03-23T13:18:58.054Z,96588.47
2019-03-23T13:21:24.195Z,96576.73
2019-03-23T13:23:50.215Z,96574.44
2019-03-23T13:26:16.258Z,96570.94
2019-03-23T13:28:42.525Z,96581.09
2019-03-23T13:31:08.696Z,96570.42
2019-03-23T13:33:34.848Z,96569.67
2019-03-23T13:36:00.995Z,96561.63
2019-03-23T13:38:27.117Z,96559.23
2019-03-23T13:40:53.275Z,96558.79
2019-03-23T13:43:19.516Z,96552.20
2019-03-23T13:45:45.655Z,96549.80
2019-03-23T13:48:11.784Z,96540.59
2019-03-23T13:50:37.907Z,96543.47
2019-03-23T13:53:04.073Z,96537.25
2019-03-23T13:55:32.756Z,96537.05
2019-03-23T13:58:13.083Z,96534.79
2019-03-23T14:00:44.209Z,96529.09
2019-03-23T14:03:10.553Z,96524.94
2019-03-23T14:05:36.683Z,96535.09
2019-03-23T14:08:02.928Z,96526.09
2019-03-23T14:10:29.050Z,96526.20
2019-03-23T14:12:57.251Z,96522.76
2019-03-23T14:15:23.404Z,96518.84
2019-03-23T14:17:51.389Z,96513.58
2019-03-23T14:20:17.556Z,96514.73
2019-03-23T14:22:43.575Z,96507.94
2019-03-23T14:25:09.713Z,96502.03
2019-03-23T14:27:37.155Z,96505.71
2019-03-23T14:30:05.847Z,96506.59
2019-03-23T14:32:31.918Z,96506.63
2019-03-23T14:35:01.140Z,96507.97
2019-03-23T14:37:27.657Z,96500.69
2019-03-23T14:39:53.957Z,96496.39
2019-03-23T14:42:20.077Z,96497.22
2019-03-23T14:44:46.418Z,96488.42
2019-03-23T14:47:12.683Z,96482.81
2019-03-23T14:49:38.950Z,96488.78
2019-03-23T14:52:05.376Z,96479.41
2019-03-23T14:54:31.718Z,96475.38
2019-03-23T14:56:57.993Z,96469.69
2019-03-23T14:59:24.432Z,96468.86
2019-03-23T15:01:50.704Z,96472.34
2019-03-23T15:04:16.852Z,96465.39
2019-03-23T15:06:46.565Z,96460.03
2019-03-23T15:09:12.673Z,96461.06
2019-03-23T15:11:38.903Z,96464.30
2019-03-23T15:14:05.145Z,96464.30
2019-03-23T15:16:31.371Z,96457.47
2019-03-23T15:18:57.668Z,96460.36
2019-03-23T15:21:23.883Z,96460.75
2019-03-23T15:23:49.989Z,96465.59
2019-03-23T15:26:16.186Z,96464.70
2019-03-23T15:28:42.344Z,96463.20
2019-03-23T15:31:08.598Z,96460.42
2019-03-23T15:33:34.835Z,96458.73
2019-03-23T15:36:01.078Z,96465.56
2019-03-23T15:38:27.358Z,96464.94
2019-03-23T15:40:53.659Z,96465.86
2019-03-23T15:43:19.890Z,96465.97
2019-03-23T15:45:46.016Z,96462.20
2019-03-23T15:48:12.334Z,96464.94
2019-03-23T15:50:38.514Z,96459.52
2019-03-23T15:53:04.790Z,96460.34
2019-03-23T15:55:32.059Z,96457.13
2019-03-23T15:57:58.353Z,96461.83
2019-03-23T16:00:24.515Z,96457.95
2019-03-23T16:02:51.045Z,96466.77
2019-03-23T16:05:17.347Z,96466.55
2019-03-23T16:07:47.830Z,96464.22
2019-03-23T16:10:16.705Z,96468.70
2019-03-23T16:12:46.819Z,96467.09
2019-03-23T16:15:22.904Z,96470.21
2019-03-23T16:17:49.605Z,96471.28
2019-03-23T16:20:27.830Z,96471.86
2019-03-23T16:22:59.629Z,96472.44
2019-03-23T16:25:25.735Z,96469.76
2019-03-23T16:27:52.037Z,96474.02
2019-03-23T16:30:29.986Z,96471.63
2019-03-23T16:32:56.243Z,96474.70
2019-03-23T16:35:22.418Z,96473.98
2019-03-23T16:37:48.748Z,96474.89
2019-03-23T16:40:14.950Z,96477.05
2019-03-23T16:42:45.137Z,96475.88
2019-03-23T16:45:09.632Z,96484.08
2019-03-23T16:47:35.993Z,96483.11
2019-03-23T16:50:04.079Z,96492.50
2019-03-23T16:52:30.315Z,96487.64
2019-03-23T16:54:56.613Z,96483.83
2019-03-23T16:57:22.863Z,96489.19
2019-03-23T16:59:49.147Z,96496.71
2019-03-23T17:02:15.288Z,96490.61
2019-03-23T17:04:41.601Z,96492.67
2019-03-23T17:07:07.839Z,96492.58
2019-03-23T17:09:35.745Z,96489.97
2019-03-23T17:12:02.028Z,96490.70
2019-03-23T17:14:28.275Z,96498.86
2019-03-23T17:16:54.510Z,96502.40
2019-03-23T17:19:20.818Z,96499.95
2019-03-23T17:21:46.858Z,96501.48
2019-03-23T17:24:12.986Z,96506.05
2019-03-23T17:26:39.227Z,96509.47
2019-03-23T17:29:05.403Z,96509.05
2019-03-23T17:31:31.662Z,96511.06
2019-03-23T17:33:57.895Z,96512.48
2019-03-23T17:36:24.002Z,96513.53
2019-03-23T17:38:50.310Z,96513.78
2019-03-23T17:41:19.538Z,96509.66
2019-03-23T17:43:45.805Z,96516.13
2019-03-23T17:46:11.916Z,96514.77
2019-03-23T17:48:38.357Z,96525.84
2019-03-23T17:51:06.828Z,96533.31
2019-03-23T17:53:32.634Z,96532.67
2019-03-23T17:55:58.891Z,96529.94
2019-03-23T17:58:33.485Z,96533.67
2019-03-23T18:00:59.951Z,96529.66
2019-03-23T18:03:26.238Z,96534.02
2019-03-23T18:05:52.379Z,96536.29
2019-03-23T18:08:25.384Z,96534.80
2019-03-23T18:10:51.675Z,96540.20
2019-03-23T18:13:17.952Z,96542.34
2019-03-23T18:15:48.747Z,96542.02
2019-03-23T18:18:14.897Z,96548.95
2019-03-23T18:20:41.032Z,96548.74
2019-03-23T18:23:07.342Z,96548.86
2019-03-23T18:25:33.607Z,96558.34
2019-03-23T18:27:59.709Z,96554.80
2019-03-23T18:30:42.529Z,96561.03
2019-03-23T18:33:11.036Z,96564.09
2019-03-23T18:35:37.186Z,96562.53
2019-03-23T18:38:03.922Z,96565.47
2019-03-23T18:40:31.644Z,96566.06
2019-03-23T18:42:57.787Z,96554.42
2019-03-23T18:45:23.897Z,96559.59
2019-03-23T18:47:50.198Z,96557.22
2019-03-23T18:50:16.307Z,96559.24
2019-03-23T18:52:42.552Z,96570.17
2019-03-23T18:55:08.791Z,96577.00
2019-03-23T18:57:35.036Z,96577.39
2019-03-23T19:00:01.367Z,96581.58
2019-03-23T19:02:27.528Z,96586.70
2019-03-23T19:04:53.705Z,96584.11
2019-03-23T19:07:19.953Z,96588.27
2019-03-23T19:09:46.144Z,96581.22
2019-03-23T19:12:14.445Z,96584.76
2019-03-23T19:14:40.581Z,96582.16
2019-03-23T19:17:06.728Z,96587.31
2019-03-23T19:19:35.678Z,96590.14
2019-03-23T19:22:01.905Z,96588.70
2019-03-23T19:24:28.061Z,96591.21
2019-03-23T19:26:54.292Z,96589.91
2019-03-23T19:29:20.451Z,96592.59
2019-03-23T19:31:46.678Z,96591.15
2019-03-23T19:34:12.844Z,96594.28
2019-03-23T19:36:38.966Z,96594.67
2019-03-23T19:39:06.393Z,96587.78
2019-03-23T19:41:32.559Z,96593.72
2019-03-23T19:43:58.829Z,96591.44
2019-03-23T19:46:24.980Z,96592.92
2019-03-23T19:48:51.103Z,96579.80
2019-03-23T19:51:17.227Z,96585.10
2019-03-23T19:53:43.385Z,96582.16
2019-03-23T19:56:09.428Z,96583.65
2019-03-23T19:58:35.565Z,96583.16
2019-03-23T20:01:01.706Z,96580.56
2019-03-23T20:03:27.877Z,96584.34
2019-03-23T20:05:53.989Z,96593.89
2019-03-23T20:08:20.139Z,96584.68
2019-03-23T20:10:46.266Z,96590.96
2019-03-23T20:13:12.497Z,96582.75
2019-03-23T20:15:38.622Z,96584.38
2019-03-23T20:18:04.810Z,96575.82
2019-03-23T20:20:30.944Z,96579.14
2019-03-23T20:22:57.075Z,96585.89
2019-03-23T20:25:23.212Z,96583.72
2019-03-23T20:27:49.334Z,96582.77
2019-03-23T20:30:15.676Z,96582.72
2019-03-23T20:32:41.802Z,96590.12
2019-03-23T20:35:08.341Z,96593.58
2019-03-23T20:37:34.457Z,96585.36
2019-03-23T20:40:00.601Z,96586.03
2019-03-23T20:42:26.889Z,96588.66
2019-03-23T20:44:53.009Z,96581.77
2019-03-23T20:47:19.254Z,96576.81
2019-03-23T20:49:45.975Z,96579.79
2019-03-23T20:52:12.102Z,96583.23
2019-03-23T20:54:38.273Z,96582.58
2019-03-23T20:57:04.401Z,96577.98
2019-03-23T20:59:31.810Z,96579.95
2019-03-23T21:01:58.067Z,96580.45
2019-03-23T21:04:24.208Z,96580.08
2019-03-23T21:06:50.349Z,96574.17
2019-03-23T21:09:16.459Z,96575.47
2019-03-23T21:11:42.580Z,96567.25
2019-03-23T21:14:08.717Z,96564.80
2019-03-23T21:16:34.849Z,96568.89
2019-03-23T21:19:00.868Z,96569.03
2019-03-23T21:21:27.004Z,96556.39
2019-03-23T21:23:53.133Z,96562.30
2019-03-23T21:26:19.270Z,96566.88
2019-03-23T21:28:46.245Z,96561.95
2019-03-23T21:31:12.405Z,96560.78
2019-03-23T21:33:39.173Z,96564.91
2019-03-23T21:36:05.399Z,96559.97
2019-03-23T21:38:31.435Z,96557.98
2019-03-23T21:40:57.519Z,96553.55
2019-03-23T21:43:23.634Z,96550.44
2019-03-23T21:45:49.775Z,96544.20
2019-03-23T21:48:15.897Z,96545.97
2019-03-23T21:50:47.326Z,96543.35
2019-03-23T21:53:10.128Z,96543.17
2019-03-23T21:55:36.265Z,96544.44
2019-03-23T21:58:02.417Z,96540.50
2019-03-23T22:00:30.189Z,96542.48
2019-03-23T22:02:56.325Z,96542.48
2019-03-23T22:05:22.524Z,96540.50
2019-03-23T22:07:48.753Z,96534.58
2019-03-23T22:10:14.876Z,96536.86
2019-03-23T22:12:41.034Z,96539.97
2019-03-23T22:15:07.856Z,96533.57
2019-03-23T22:17:34.044Z,96536.17
2019-03-23T22:20:00.298Z,96535.79
2019-03-23T22:22:26.540Z,96537.42
2019-03-23T22:24:52.672Z,96532.49
2019-03-23T22:27:20.628Z,96536.91
2019-03-23T22:29:46.764Z,96532.94
2019-03-23T22:32:12.910Z,96539.50
2019-03-23T22:34:38.951Z,96532.43
2019-03-23T22:37:05.002Z,96537.17
2019-03-23T22:39:31.110Z,96530.58
2019-03-23T22:41:57.261Z,96530.73
2019-03-23T22:44:23.411Z,96526.80
2019-03-23T22:46:49.456Z,96523.50
2019-03-23T22:49:15.592Z,96529.19
2019-03-23T22:51:41.729Z,96525.57
2019-03-23T22:54:09.731Z,96527.01
2019-03-23T22:56:35.865Z,96522.72
2019-03-23T22:59:01.985Z,96523.03
2019-03-23T23:01:28.126Z,96522.03
2019-03-23T23:03:54.253Z,96522.67
2019-03-23T23:06:20.481Z,96522.03
2019-03-23T23:08:46.640Z,96522.71
2019-03-23T23:11:14.203Z,96514.17
2019-03-23T23:13:40.293Z,96520.05
2019-03-23T23:16:06.740Z,96512.82
2019-03-23T23:18:33.978Z,96521.16
2019-03-23T23:20:59.995Z,96519.33
2019-03-23T23:23:26.174Z,96521.59
2019-03-23T23:25:52.202Z,96522.22
2019-03-23T23:28:18.354Z,96518.56
2019-03-23T23:30:44.480Z,96520.50
2019-03-23T23:33:10.599Z,96513.91
2019-03-23T23:35:36.732Z,96520.92
2019-03-23T23:38:02.851Z,96523.54
2019-03-23T23:40:28.982Z,96524.70
2019-03-23T23:42:55.032Z,96522.39
2019-03-23T23:45:21.168Z,96519.09
2019-03-23T23:47:47.335Z,96510.59
2019-03-23T23:50:13.464Z,96522.70
2019-03-23T23:52:39.593Z,96517.56
2019-03-23T23:55:06.063Z,96517.04
2019-03-23T23:57:32.196Z,96513.42
2019-03-23T23:59:58.379Z,96511.59
